Terminal Aerodrome Forecast
Issued by NWS Cleveland, OH

Home | Current Version | Previous Version | Text Only | Print | Product List | Glossary On
Versions: 1 2 3 4 5 6 7 8 9 10 11 12 13 14 15 16
718
FTUS41 KCLE 232341
TAFERI
TAF
KERI 232341Z 2400/2424 20009KT P6SM BKN060
     FM240400 20011KT P6SM SCT060
     FM241600 20015G22KT P6SM SCT200=

USA.gov is the U.S. government's official web portal to all federal, state and local government web resources and services.